Time;durP1;ratioP1;P1;durP2;ratioP2;P2;SDS_P1;SDS_P2;PMS_P1;PMS_P2;Temp;Humidity;BMP_temperature;BMP_pressure;BME280_temperature;BME280_humidity;BME280_pressure;Samples;Min_cycle;Max_cycle;Signal;HPM_P1;HPM_P2
2021/10/07 00:00:16;;;;;;;449.23;428.07;;;10.70;99.90;;;;;;4405669;32;20650;-74
2021/10/07 00:02:43;;;;;;;441.83;421.23;;;10.70;99.90;;;;;;4405823;32;20595;-72
2021/10/07 00:05:11;;;;;;;446.90;426.33;;;10.60;99.90;;;;;;4405624;32;20541;-70
2021/10/07 00:07:40;;;;;;;450.10;429.53;;;10.60;99.90;;;;;;4406098;32;20168;-73
2021/10/07 00:10:07;;;;;;;448.60;427.87;;;10.50;99.90;;;;;;4405699;32;20577;-71
2021/10/07 00:12:34;;;;;;;433.73;413.70;;;10.50;99.90;;;;;;4405699;32;20136;-72
2021/10/07 00:15:01;;;;;;;454.13;433.20;;;10.50;99.90;;;;;;4405351;32;20190;-72
2021/10/07 00:17:28;;;;;;;434.43;413.93;;;10.40;99.90;;;;;;4405828;32;20618;-73
2021/10/07 00:19:55;;;;;;;426.53;406.47;;;10.40;99.90;;;;;;4405618;32;20148;-70
2021/10/07 00:22:22;;;;;;;427.20;407.87;;;10.40;99.90;;;;;;4405763;32;20155;-71
2021/10/07 00:24:50;;;;;;;430.77;411.37;;;10.30;99.90;;;;;;4405303;32;20425;-71
2021/10/07 00:27:17;;;;;;;420.00;400.40;;;10.30;99.90;;;;;;4405686;32;20144;-73
2021/10/07 00:29:45;;;;;;;403.10;384.87;;;10.30;99.90;;;;;;4405210;32;20174;-71
2021/10/07 00:32:14;;;;;;;421.00;401.53;;;10.30;99.90;;;;;;4405492;32;20132;-71
2021/10/07 00:34:56;;;;;;;421.67;402.57;;;10.20;99.90;;;;;;4405175;32;20170;-71
2021/10/07 00:37:28;;;;;;;416.63;397.83;;;10.10;99.90;;;;;;4405311;32;20159;-73
2021/10/07 00:39:58;;;;;;;425.37;405.97;;;10.10;99.90;;;;;;4404909;32;20190;-71
2021/10/07 00:42:24;;;;;;;431.47;409.50;;;10.10;99.90;;;;;;4405480;32;20144;-70
2021/10/07 00:44:51;;;;;;;425.77;405.97;;;10.10;99.90;;;;;;4405091;32;20144;-73
2021/10/07 00:47:18;;;;;;;423.43;404.43;;;10.10;99.90;;;;;;4404765;32;20522;-74
2021/10/07 00:49:46;;;;;;;422.67;403.40;;;10.10;99.90;;;;;;4405109;32;20236;-73
2021/10/07 00:52:18;;;;;;;432.30;412.73;;;10.20;99.90;;;;;;4405440;32;20166;-71
2021/10/07 00:54:46;;;;;;;441.07;420.67;;;10.20;99.90;;;;;;4405457;32;20148;-71
2021/10/07 00:57:17;;;;;;;427.53;407.80;;;10.20;99.90;;;;;;4405676;32;20215;-71
2021/10/07 00:59:44;;;;;;;407.70;389.13;;;10.30;99.90;;;;;;4405246;32;20165;-71
2021/10/07 01:02:11;;;;;;;433.30;413.43;;;10.30;99.90;;;;;;4405002;32;20140;-71
2021/10/07 01:04:38;;;;;;;422.60;403.07;;;10.30;99.90;;;;;;4404980;32;20155;-71
2021/10/07 01:07:06;;;;;;;409.50;391.07;;;10.20;99.90;;;;;;4405236;32;20156;-72
2021/10/07 01:09:42;;;;;;;409.53;390.70;;;10.20;99.90;;;;;;4405013;32;20492;-72
2021/10/07 01:12:09;;;;;;;422.30;403.03;;;10.10;99.90;;;;;;4405365;32;20206;-71
2021/10/07 01:14:43;;;;;;;408.30;389.90;;;10.00;99.90;;;;;;4404504;32;20479;-73
2021/10/07 01:17:15;;;;;;;409.90;391.47;;;10.00;99.90;;;;;;4407632;32;20135;-70
2021/10/07 01:19:53;;;;;;;410.10;391.67;;;9.90;99.90;;;;;;4407697;32;20218;-71
2021/10/07 01:22:21;;;;;;;379.57;362.90;;;9.90;99.90;;;;;;4407459;32;20498;-72
2021/10/07 01:24:49;;;;;;;413.57;395.07;;;9.90;99.90;;;;;;4408215;32;20182;-71
2021/10/07 01:27:17;;;;;;;427.73;408.33;;;9.80;99.90;;;;;;4408089;32;20158;-72
2021/10/07 01:29:44;;;;;;;399.57;381.47;;;9.90;99.90;;;;;;4408794;32;20207;-70
2021/10/07 01:32:11;;;;;;;391.93;374.23;;;9.90;99.90;;;;;;4408292;32;20153;-70
2021/10/07 01:34:38;;;;;;;401.50;383.40;;;9.70;99.90;;;;;;4407625;32;20180;-71
2021/10/07 01:37:06;;;;;;;399.13;381.07;;;9.70;99.90;;;;;;4407717;32;20203;-71
2021/10/07 01:39:33;;;;;;;404.43;386.23;;;9.70;99.90;;;;;;4407903;32;20228;-71
2021/10/07 01:42:00;;;;;;;378.47;361.77;;;9.70;99.90;;;;;;4408281;32;20605;-73
2021/10/07 01:44:29;;;;;;;402.83;384.97;;;9.60;99.90;;;;;;4408017;32;20151;-72
2021/10/07 01:46:56;;;;;;;380.27;363.37;;;9.60;99.90;;;;;;4407613;32;20144;-73
2021/10/07 01:49:23;;;;;;;380.30;363.13;;;9.50;99.90;;;;;;4407217;32;20140;-73
2021/10/07 01:51:50;;;;;;;389.20;371.83;;;9.50;99.90;;;;;;4407496;32;20163;-70
2021/10/07 01:54:18;;;;;;;369.27;352.87;;;9.50;99.90;;;;;;4407915;32;20170;-71
2021/10/07 01:56:45;;;;;;;370.17;353.40;;;9.40;99.90;;;;;;4407297;32;20181;-73
2021/10/07 01:59:12;;;;;;;384.83;367.33;;;9.40;99.90;;;;;;4407816;32;20155;-73
2021/10/07 02:01:39;;;;;;;368.20;351.70;;;9.40;99.90;;;;;;4407092;32;20618;-71
2021/10/07 02:04:07;;;;;;;381.10;364.27;;;9.40;99.90;;;;;;4409099;32;20233;-71
2021/10/07 02:06:36;;;;;;;390.20;373.00;;;9.30;99.90;;;;;;4403764;32;20205;-70
2021/10/07 02:09:04;;;;;;;371.07;354.87;;;9.30;99.90;;;;;;4407165;32;20610;-71
2021/10/07 02:11:33;;;;;;;370.43;353.87;;;9.30;99.90;;;;;;4406636;32;20151;-71
2021/10/07 02:14:00;;;;;;;368.10;352.00;;;9.30;99.90;;;;;;4407831;32;20551;-70
2021/10/07 02:16:28;;;;;;;364.77;348.70;;;9.30;99.90;;;;;;4407897;32;20170;-71
2021/10/07 02:18:54;;;;;;;357.43;341.47;;;9.30;99.90;;;;;;4407525;32;20572;-70
2021/10/07 02:21:21;;;;;;;365.60;349.03;;;9.20;99.90;;;;;;4407052;32;20145;-71
2021/10/07 02:23:48;;;;;;;354.70;338.80;;;9.20;99.90;;;;;;4407626;32;20219;-70
2021/10/07 02:26:15;;;;;;;366.67;349.80;;;9.20;99.90;;;;;;4405341;32;20206;-70
2021/10/07 02:28:44;;;;;;;346.47;331.00;;;9.10;99.90;;;;;;4409159;32;20148;-71
2021/10/07 02:31:11;;;;;;;356.03;340.27;;;9.10;99.90;;;;;;4406912;32;20591;-70
2021/10/07 02:33:37;;;;;;;362.73;346.67;;;9.10;99.90;;;;;;4408929;32;20139;-74
2021/10/07 02:36:05;;;;;;;367.67;351.00;;;9.10;99.90;;;;;;4407574;32;20201;-71
2021/10/07 02:38:32;;;;;;;373.47;356.87;;;9.20;99.90;;;;;;4407130;32;20151;-71
2021/10/07 02:40:59;;;;;;;374.47;357.77;;;9.10;99.90;;;;;;4406678;32;20281;-74
2021/10/07 02:43:26;;;;;;;386.27;368.63;;;9.20;99.90;;;;;;4407921;32;20146;-71
2021/10/07 02:45:54;;;;;;;393.70;375.80;;;9.20;99.90;;;;;;4406261;32;20142;-71
2021/10/07 02:48:21;;;;;;;396.43;378.40;;;9.30;99.90;;;;;;4391942;32;20145;-72
2021/10/07 02:50:48;;;;;;;393.30;375.57;;;9.30;99.90;;;;;;4400509;32;20190;-71
2021/10/07 02:53:15;;;;;;;413.87;395.33;;;9.40;99.90;;;;;;4407393;32;20138;-73
2021/10/07 02:55:41;;;;;;;400.10;381.70;;;9.40;99.90;;;;;;4406645;32;20167;-71
2021/10/07 02:58:08;;;;;;;406.43;387.60;;;9.50;99.90;;;;;;4406535;32;20496;-71
2021/10/07 03:00:35;;;;;;;396.47;378.57;;;9.50;99.90;;;;;;4406335;32;20326;-73
2021/10/07 03:03:04;;;;;;;391.73;374.10;;;9.50;99.90;;;;;;4406882;32;20160;-71
2021/10/07 03:05:31;;;;;;;367.97;351.67;;;9.40;99.90;;;;;;4406440;32;20200;-71
2021/10/07 03:07:57;;;;;;;387.53;370.13;;;9.40;99.90;;;;;;4406600;32;20151;-72
2021/10/07 03:10:24;;;;;;;373.30;356.47;;;9.30;99.90;;;;;;4404757;32;20227;-71
2021/10/07 03:12:51;;;;;;;377.67;361.00;;;9.20;99.90;;;;;;4391536;32;20548;-71
2021/10/07 03:15:20;;;;;;;369.07;352.77;;;9.20;99.90;;;;;;4401940;32;20166;-72
2021/10/07 03:17:56;;;;;;;361.07;344.80;;;9.20;99.90;;;;;;4407660;32;20562;-71
2021/10/07 03:20:29;;;;;;;380.70;363.90;;;9.20;99.90;;;;;;4406197;32;20144;-71
2021/10/07 03:22:56;;;;;;;348.30;333.03;;;9.10;99.90;;;;;;4407084;32;20245;-70
2021/10/07 03:25:25;;;;;;;379.80;362.93;;;9.10;99.90;;;;;;4406086;32;20163;-71
2021/10/07 03:27:59;;;;;;;366.90;350.57;;;9.10;99.90;;;;;;4393100;32;20270;-70
2021/10/07 03:30:27;;;;;;;369.13;352.87;;;9.10;99.90;;;;;;4391860;32;20260;-72
2021/10/07 03:33:04;;;;;;;370.60;354.13;;;9.00;99.90;;;;;;4390252;32;20287;-71
2021/10/07 03:35:33;;;;;;;364.87;348.73;;;9.00;99.90;;;;;;4397358;32;20204;-70
2021/10/07 03:38:00;;;;;;;370.37;353.77;;;9.00;99.90;;;;;;4399778;32;20202;-73
2021/10/07 03:40:28;;;;;;;372.97;356.50;;;9.00;99.90;;;;;;4399793;32;20179;-70
2021/10/07 03:42:54;;;;;;;330.47;316.13;;;8.90;99.90;;;;;;4402350;32;20221;-71
2021/10/07 03:45:24;;;;;;;349.50;334.33;;;8.80;99.90;;;;;;4396139;32;20224;-73
2021/10/07 03:47:54;;;;;;;373.13;356.90;;;8.80;99.90;;;;;;4393908;32;20199;-74
2021/10/07 03:50:22;;;;;;;344.07;328.83;;;8.80;99.90;;;;;;4388288;32;20210;-72
2021/10/07 03:52:51;;;;;;;349.57;334.37;;;8.80;99.90;;;;;;4402513;32;20173;-71
2021/10/07 03:55:30;;;;;;;353.83;338.53;;;8.80;99.90;;;;;;4393542;32;20185;-71
2021/10/07 04:07:03;;;;;;;342.70;327.57;;;8.70;99.90;;;;;;4404818;32;20620;-71
2021/10/07 04:09:32;;;;;;;358.67;343.17;;;8.70;99.90;;;;;;4405393;32;20201;-69
2021/10/07 04:11:59;;;;;;;326.83;312.73;;;8.60;99.90;;;;;;4405542;32;20274;-70
2021/10/07 04:14:29;;;;;;;303.23;290.27;;;8.60;99.90;;;;;;4405879;32;20150;-73
2021/10/07 04:16:59;;;;;;;327.97;313.87;;;8.50;99.90;;;;;;4405993;32;20184;-71
2021/10/07 04:19:26;;;;;;;332.10;317.57;;;8.50;99.90;;;;;;4405294;32;20144;-69
2021/10/07 04:21:55;;;;;;;344.30;329.50;;;8.50;99.90;;;;;;4405858;32;20174;-75
2021/10/07 04:24:25;;;;;;;353.13;337.87;;;8.50;99.90;;;;;;4405392;32;20528;-70
2021/10/07 04:26:59;;;;;;;346.87;331.93;;;8.50;99.90;;;;;;4407165;32;20156;-69
2021/10/07 04:29:31;;;;;;;348.50;333.03;;;8.50;99.90;;;;;;4405100;32;20476;-69
2021/10/07 04:32:03;;;;;;;328.17;313.93;;;8.40;99.90;;;;;;4405744;32;20176;-71
2021/10/07 04:34:33;;;;;;;329.40;315.00;;;8.40;99.90;;;;;;4405240;32;20155;-71
2021/10/07 04:37:05;;;;;;;314.07;300.57;;;8.50;99.90;;;;;;4405320;32;20149;-74
2021/10/07 04:39:37;;;;;;;313.10;299.60;;;8.40;99.90;;;;;;4405977;32;20148;-71
2021/10/07 04:42:12;;;;;;;321.10;307.20;;;8.40;99.90;;;;;;4405316;32;20158;-71
2021/10/07 04:44:45;;;;;;;328.07;313.80;;;8.40;99.90;;;;;;4406079;32;20552;-73
2021/10/07 04:47:14;;;;;;;319.77;305.90;;;8.40;99.90;;;;;;4404947;32;20698;-72
2021/10/07 04:49:43;;;;;;;335.00;319.90;;;8.30;99.90;;;;;;4405373;32;20180;-71
2021/10/07 04:52:19;;;;;;;318.53;304.67;;;8.30;99.90;;;;;;4407299;32;20163;-73
2021/10/07 04:54:54;;;;;;;310.70;297.33;;;8.30;99.90;;;;;;4408085;32;20142;-71
2021/10/07 04:57:29;;;;;;;321.43;307.53;;;8.30;99.90;;;;;;4408452;32;20203;-70
2021/10/07 04:59:58;;;;;;;343.73;328.53;;;8.30;99.90;;;;;;4408986;32;20128;-69
2021/10/07 05:02:28;;;;;;;336.83;322.13;;;8.30;99.90;;;;;;4408422;32;20163;-70
2021/10/07 05:05:00;;;;;;;338.40;323.63;;;8.40;99.90;;;;;;4410387;32;20194;-70
2021/10/07 05:07:32;;;;;;;318.80;304.93;;;8.40;99.90;;;;;;4407078;32;20164;-71
2021/10/07 05:10:09;;;;;;;329.80;315.40;;;8.30;99.90;;;;;;4408520;32;20174;-69
2021/10/07 05:12:40;;;;;;;326.47;312.40;;;8.30;99.90;;;;;;4408138;32;20189;-70
2021/10/07 05:15:13;;;;;;;334.10;319.40;;;8.30;99.90;;;;;;4408108;32;20229;-69
2021/10/07 05:17:51;;;;;;;328.73;314.23;;;8.30;99.90;;;;;;4408576;32;20159;-71
2021/10/07 05:20:18;;;;;;;315.23;301.10;;;8.30;99.90;;;;;;4409870;32;20166;-69
2021/10/07 05:22:47;;;;;;;334.83;320.30;;;8.30;99.90;;;;;;4408306;32;20163;-70
2021/10/07 05:25:19;;;;;;;325.30;310.80;;;8.30;99.90;;;;;;4408312;32;20165;-71
2021/10/07 05:27:54;;;;;;;332.87;317.10;;;8.30;99.90;;;;;;4407719;32;20168;-70
2021/10/07 05:30:24;;;;;;;346.90;330.53;;;8.30;99.90;;;;;;4398875;32;20176;-69
2021/10/07 05:32:51;;;;;;;346.50;330.80;;;8.30;99.90;;;;;;4398720;32;20180;-70
2021/10/07 05:35:18;;;;;;;359.07;343.30;;;8.40;99.90;;;;;;4400021;32;20153;-72
2021/10/07 05:37:48;;;;;;;352.23;336.33;;;8.50;99.90;;;;;;4409777;32;20226;-70
2021/10/07 05:40:18;;;;;;;371.03;354.33;;;8.50;99.90;;;;;;4409168;32;20163;-69
2021/10/07 05:42:55;;;;;;;338.10;322.70;;;8.50;99.90;;;;;;4407158;32;20163;-70
2021/10/07 05:45:31;;;;;;;331.60;317.10;;;8.50;99.90;;;;;;4402907;32;20154;-69
2021/10/07 05:48:12;;;;;;;339.07;323.87;;;8.50;99.90;;;;;;4406891;32;20155;-71
2021/10/07 05:50:45;;;;;;;334.87;320.10;;;8.50;99.90;;;;;;4398964;32;20140;-69
2021/10/07 05:53:12;;;;;;;331.90;317.03;;;8.50;99.90;;;;;;4407228;32;20184;-69
2021/10/07 05:55:38;;;;;;;343.17;327.53;;;8.40;99.90;;;;;;4406940;32;20142;-70
2021/10/07 05:58:07;;;;;;;335.40;320.07;;;8.50;99.90;;;;;;4406911;32;20148;-68
2021/10/07 06:00:33;;;;;;;340.53;325.03;;;8.50;99.90;;;;;;4407135;32;20144;-68
2021/10/07 06:03:00;;;;;;;338.80;323.60;;;8.50;99.90;;;;;;4406415;32;20141;-72
2021/10/07 06:05:27;;;;;;;355.50;339.00;;;8.50;99.90;;;;;;4407184;32;20168;-70
2021/10/07 06:07:56;;;;;;;351.13;334.53;;;8.60;99.90;;;;;;4407871;32;20185;-68
2021/10/07 06:10:28;;;;;;;342.50;327.37;;;8.60;99.90;;;;;;4403787;32;20592;-70
2021/10/07 06:12:56;;;;;;;345.87;330.10;;;8.60;99.90;;;;;;4406894;32;20219;-68
2021/10/07 06:15:30;;;;;;;353.07;337.17;;;8.70;99.90;;;;;;4402466;32;20135;-68
2021/10/07 06:18:00;;;;;;;345.53;329.93;;;8.70;99.90;;;;;;4406709;32;20639;-69
2021/10/07 06:20:31;;;;;;;343.23;327.90;;;8.70;99.90;;;;;;4405632;32;20153;-70
2021/10/07 06:23:01;;;;;;;354.73;338.20;;;8.70;99.90;;;;;;4399237;32;20165;-69
2021/10/07 06:25:29;;;;;;;355.20;338.93;;;8.80;99.90;;;;;;4405883;32;20137;-70
2021/10/07 06:27:56;;;;;;;374.23;357.10;;;8.80;99.90;;;;;;4405757;32;20149;-70
2021/10/07 06:30:23;;;;;;;395.53;377.03;;;9.00;99.90;;;;;;4402050;32;20233;-69
2021/10/07 06:32:51;;;;;;;401.17;381.13;;;9.00;99.90;;;;;;4407161;32;20157;-69
2021/10/07 06:35:19;;;;;;;426.17;406.20;;;9.20;99.90;;;;;;4407587;32;20458;-70
2021/10/07 06:37:46;;;;;;;431.50;411.13;;;9.30;99.90;;;;;;4407298;32;20498;-69
2021/10/07 06:40:13;;;;;;;433.97;413.10;;;9.40;99.90;;;;;;4408985;32;20165;-69
2021/10/07 06:42:40;;;;;;;440.83;419.43;;;9.60;99.90;;;;;;4407626;32;20165;-70
2021/10/07 06:45:08;;;;;;;433.93;413.60;;;9.80;99.90;;;;;;4407357;32;20135;-70
2021/10/07 06:47:36;;;;;;;468.07;442.87;;;10.00;99.90;;;;;;4407447;32;20442;-71
2021/10/07 06:50:08;;;;;;;453.53;431.03;;;10.20;99.90;;;;;;4407765;32;20151;-71
2021/10/07 06:52:34;;;;;;;449.07;426.20;;;10.30;99.90;;;;;;4406915;32;20148;-69
2021/10/07 06:55:04;;;;;;;454.40;432.17;;;10.40;99.90;;;;;;4406982;32;20167;-68
2021/10/07 06:57:32;;;;;;;452.03;429.33;;;10.50;99.90;;;;;;4406899;32;20167;-68
2021/10/07 07:00:02;;;;;;;441.67;419.70;;;10.60;99.90;;;;;;4407226;32;20463;-69
2021/10/07 07:02:29;;;;;;;459.27;436.73;;;10.60;99.90;;;;;;4406952;32;20132;-71
2021/10/07 07:04:56;;;;;;;475.10;451.80;;;10.70;99.90;;;;;;4406836;32;20582;-70
2021/10/07 07:07:25;;;;;;;473.20;449.43;;;10.90;99.90;;;;;;4406698;32;20194;-70
2021/10/07 07:09:52;;;;;;;467.33;444.60;;;11.00;99.90;;;;;;4407712;32;20465;-70
2021/10/07 07:12:19;;;;;;;467.60;444.77;;;11.00;99.90;;;;;;4406686;32;20145;-70
2021/10/07 07:14:46;;;;;;;468.53;445.77;;;11.10;99.90;;;;;;4406678;32;20170;-69
2021/10/07 07:17:13;;;;;;;462.67;439.00;;;11.20;99.90;;;;;;4406664;32;20140;-69
2021/10/07 07:19:40;;;;;;;477.27;453.63;;;11.40;99.90;;;;;;4406758;32;20512;-68
2021/10/07 07:22:10;;;;;;;495.40;470.70;;;11.50;99.90;;;;;;4406972;32;20155;-71
2021/10/07 07:24:38;;;;;;;483.13;459.03;;;11.70;99.90;;;;;;4406635;32;20479;-71
2021/10/07 07:27:05;;;;;;;490.87;466.53;;;11.90;99.90;;;;;;4406579;32;20148;-68
2021/10/07 07:29:32;;;;;;;489.23;464.73;;;12.00;99.90;;;;;;4406615;32;20186;-70
2021/10/07 07:31:59;;;;;;;487.40;462.90;;;12.20;99.90;;;;;;4406462;32;20178;-69
2021/10/07 07:34:27;;;;;;;511.90;486.13;;;12.30;99.90;;;;;;4406358;32;20171;-69
2021/10/07 07:36:54;;;;;;;503.90;478.63;;;12.60;99.90;;;;;;4406514;32;20171;-69
2021/10/07 07:39:22;;;;;;;489.23;464.57;;;12.70;99.90;;;;;;4406203;32;20580;-70
2021/10/07 07:41:56;;;;;;;466.77;443.87;;;12.70;99.90;;;;;;4406603;32;20448;-70
2021/10/07 07:44:23;;;;;;;446.23;424.97;;;12.60;99.90;;;;;;4406386;32;20151;-69
2021/10/07 07:46:50;;;;;;;459.33;437.50;;;12.50;99.90;;;;;;4406275;32;20156;-69
2021/10/07 07:49:17;;;;;;;448.40;427.70;;;12.50;99.90;;;;;;4406784;32;20166;-70
2021/10/07 07:51:45;;;;;;;449.70;428.43;;;12.60;99.90;;;;;;4406509;32;20225;-71
2021/10/07 07:54:12;;;;;;;447.77;426.80;;;12.70;99.90;;;;;;4396829;32;20252;-71
2021/10/07 07:56:39;;;;;;;435.23;414.90;;;12.60;99.90;;;;;;4247144;32;4891669;-71
2021/10/07 07:59:09;;;;;;;423.63;404.40;;;12.60;99.90;;;;;;4397632;32;20174;-71
2021/10/07 08:01:36;;;;;;;423.20;403.73;;;12.50;99.90;;;;;;4406511;32;20163;-69
2021/10/07 08:04:03;;;;;;;408.80;390.07;;;12.50;99.90;;;;;;4406189;32;20463;-69
2021/10/07 08:06:32;;;;;;;421.90;402.47;;;12.40;99.90;;;;;;4405894;32;20167;-71
2021/10/07 08:08:59;;;;;;;425.47;405.23;;;12.40;99.90;;;;;;4406350;32;20151;-69
2021/10/07 08:11:26;;;;;;;425.27;405.43;;;12.40;99.90;;;;;;4405965;32;20211;-68
2021/10/07 08:13:53;;;;;;;434.07;414.10;;;12.40;99.90;;;;;;4405917;32;20164;-69
2021/10/07 08:16:24;;;;;;;449.10;427.77;;;12.40;99.90;;;;;;4405971;32;20170;-70
2021/10/07 08:18:50;;;;;;;432.43;412.10;;;12.40;99.90;;;;;;4405753;32;20178;-70
2021/10/07 08:21:23;;;;;;;452.80;431.43;;;12.50;99.90;;;;;;4405853;32;20182;-71
2021/10/07 08:23:50;;;;;;;448.50;427.23;;;12.50;99.90;;;;;;4407196;32;20234;-70
2021/10/07 08:26:17;;;;;;;456.83;435.03;;;12.60;99.90;;;;;;4406554;32;20148;-71
2021/10/07 08:28:44;;;;;;;447.17;426.03;;;12.70;99.90;;;;;;4405932;32;20172;-68
2021/10/07 08:31:12;;;;;;;452.07;430.63;;;12.80;99.90;;;;;;4406139;32;20147;-69
2021/10/07 08:33:40;;;;;;;454.90;433.07;;;12.80;99.90;;;;;;4406113;32;20186;-68
2021/10/07 08:36:10;;;;;;;452.57;431.20;;;12.90;99.90;;;;;;4405685;32;20148;-69
2021/10/07 08:38:37;;;;;;;461.37;439.40;;;13.00;99.90;;;;;;4406030;32;20147;-69
2021/10/07 08:41:04;;;;;;;473.03;450.63;;;13.10;99.90;;;;;;4405798;32;20182;-68
2021/10/07 08:43:31;;;;;;;482.40;458.90;;;13.10;99.90;;;;;;4405673;32;20448;-73
2021/10/07 08:45:58;;;;;;;476.30;453.07;;;13.30;99.90;;;;;;4406350;32;20556;-71
2021/10/07 08:48:25;;;;;;;479.90;456.80;;;13.30;99.90;;;;;;4407173;32;20186;-71
2021/10/07 08:50:53;;;;;;;464.73;442.60;;;13.50;99.90;;;;;;4405710;32;20548;-72
2021/10/07 08:53:20;;;;;;;469.80;447.40;;;13.50;99.90;;;;;;4405619;32;20168;-71
2021/10/07 08:55:47;;;;;;;456.07;434.47;;;13.50;99.90;;;;;;4405819;32;20182;-70
2021/10/07 08:58:30;;;;;;;446.23;425.27;;;13.50;99.90;;;;;;4399719;32;20607;-70
2021/10/07 09:00:56;;;;;;;397.83;380.00;;;13.50;99.90;;;;;;4392015;32;20158;-70
2021/10/07 09:03:29;;;;;;;428.33;408.27;;;13.50;99.90;;;;;;4393016;32;20156;-69
2021/10/07 09:06:21;;;;;;;430.20;410.20;;;13.60;99.90;;;;;;4393994;32;20156;-68
2021/10/07 09:08:49;;;;;;;401.17;383.33;;;13.60;99.90;;;;;;4396513;32;20205;-70
2021/10/07 09:11:28;;;;;;;402.73;384.43;;;13.60;99.90;;;;;;4395804;32;20175;-69
2021/10/07 09:14:03;;;;;;;403.17;385.03;;;13.60;99.90;;;;;;4390529;32;20156;-71
2021/10/07 09:16:33;;;;;;;400.10;382.07;;;13.60;99.90;;;;;;4390334;32;20156;-69
2021/10/07 09:19:16;;;;;;;437.87;417.80;;;13.60;99.90;;;;;;4390256;32;20152;-68
2021/10/07 09:21:46;;;;;;;405.07;386.80;;;13.60;99.90;;;;;;4390083;32;20190;-69
2021/10/07 09:24:36;;;;;;;441.77;421.60;;;13.60;99.90;;;;;;4391220;32;20190;-72
2021/10/07 09:27:10;;;;;;;417.13;397.90;;;13.80;99.90;;;;;;4390296;32;20207;-71
2021/10/07 09:29:44;;;;;;;416.33;397.73;;;14.00;99.90;;;;;;4391094;32;20151;-68
2021/10/07 09:32:15;;;;;;;422.97;403.93;;;14.00;99.90;;;;;;4391088;32;20172;-68
2021/10/07 09:34:57;;;;;;;399.53;381.77;;;14.20;99.90;;;;;;4390183;32;20159;-70
2021/10/07 09:37:32;;;;;;;339.87;325.33;;;14.40;99.90;;;;;;4392877;32;20145;-69
2021/10/07 09:40:04;;;;;;;334.43;320.20;;;14.70;99.90;;;;;;4393419;32;20219;-69
2021/10/07 09:42:34;;;;;;;280.17;268.30;;;14.90;99.90;;;;;;4392874;32;20148;-68
2021/10/07 09:45:08;;;;;;;256.00;245.13;;;14.90;99.90;;;;;;4393524;32;20201;-71
2021/10/07 09:47:42;;;;;;;217.33;208.30;;;14.90;99.90;;;;;;4392837;32;20186;-71
2021/10/07 09:50:15;;;;;;;199.63;191.17;;;14.70;99.90;;;;;;4393126;32;20201;-70
2021/10/07 09:52:47;;;;;;;185.57;177.87;;;14.40;99.90;;;;;;4389709;32;20221;-71
2021/10/07 09:55:22;;;;;;;182.53;174.87;;;14.20;99.90;;;;;;4389052;32;20232;-70
2021/10/07 09:57:51;;;;;;;201.40;193.00;;;14.10;99.90;;;;;;4385060;32;20237;-70
2021/10/07 10:00:27;;;;;;;218.77;209.57;;;14.00;99.90;;;;;;4388356;32;20281;-70
2021/10/07 10:05:47;;;;;;;209.93;200.87;;;14.00;99.90;;;;;;4387321;32;21799;-69
2021/10/07 10:08:26;;;;;;;223.27;213.93;;;14.00;99.90;;;;;;4389195;32;20237;-69
2021/10/07 10:10:55;;;;;;;250.20;239.70;;;13.90;99.90;;;;;;4389970;32;20236;-69
2021/10/07 10:13:22;;;;;;;261.27;250.17;;;14.00;99.90;;;;;;4395489;32;20639;-69
2021/10/07 10:15:50;;;;;;;284.30;272.20;;;14.00;99.90;;;;;;4398994;32;20211;-69
2021/10/07 10:18:18;;;;;;;250.60;239.97;;;14.20;99.90;;;;;;4392415;32;20195;-69
2021/10/07 10:20:52;;;;;;;260.77;249.70;;;14.20;99.90;;;;;;4392594;32;20153;-69
2021/10/07 10:23:28;;;;;;;257.33;246.37;;;14.20;99.90;;;;;;4392399;32;20199;-68
2021/10/07 10:25:57;;;;;;;261.20;250.13;;;14.30;99.90;;;;;;4392339;32;20187;-69
2021/10/07 10:28:32;;;;;;;269.07;257.67;;;14.20;99.90;;;;;;4392810;32;20519;-69
2021/10/07 10:31:03;;;;;;;277.10;265.40;;;14.30;99.90;;;;;;4393752;32;20154;-69
2021/10/07 10:33:32;;;;;;;272.97;261.17;;;14.40;99.90;;;;;;4392763;32;20147;-68
2021/10/07 10:35:59;;;;;;;270.07;258.40;;;14.50;99.90;;;;;;4393009;32;20208;-69
2021/10/07 10:38:29;;;;;;;258.57;247.17;;;14.60;99.90;;;;;;4392692;32;20204;-69
2021/10/07 10:41:09;;;;;;;255.60;244.43;;;14.60;99.90;;;;;;4392023;32;20209;-69
2021/10/07 10:43:37;;;;;;;266.40;254.97;;;14.50;99.90;;;;;;4392342;32;20510;-68
2021/10/07 10:46:16;;;;;;;290.23;277.63;;;14.50;99.90;;;;;;4392404;32;20214;-69
2021/10/07 10:49:03;;;;;;;271.70;259.87;;;14.60;99.90;;;;;;4391533;32;20575;-67
2021/10/07 10:51:38;;;;;;;277.43;265.17;;;14.70;99.90;;;;;;4391910;32;20148;-68
2021/10/07 10:54:12;;;;;;;268.97;257.03;;;14.80;99.90;;;;;;4393154;32;20642;-68
2021/10/07 10:56:45;;;;;;;257.47;246.27;;;15.20;99.90;;;;;;4391925;32;20200;-69
2021/10/07 10:59:22;;;;;;;252.60;241.60;;;15.30;99.90;;;;;;4392304;32;20604;-69
2021/10/07 11:02:24;;;;;;;269.03;257.27;;;15.20;99.90;;;;;;4391989;32;20170;-68
2021/10/07 11:04:53;;;;;;;255.43;244.37;;;15.30;99.90;;;;;;4392038;32;20209;-68
2021/10/07 11:07:22;;;;;;;259.80;248.47;;;15.60;99.90;;;;;;4391749;32;20229;-68
2021/10/07 11:10:06;;;;;;;275.40;263.30;;;15.90;99.90;;;;;;4391587;32;20168;-68
2021/10/07 11:13:00;;;;;;;237.60;227.20;;;16.20;99.90;;;;;;4391427;32;20164;-68
2021/10/07 11:15:39;;;;;;;212.53;203.03;;;15.90;99.90;;;;;;4390544;32;20180;-68
2021/10/07 11:18:09;;;;;;;226.40;216.40;;;15.60;99.90;;;;;;4391430;32;20204;-68
2021/10/07 11:20:38;;;;;;;227.97;217.83;;;15.50;99.90;;;;;;4391485;32;20161;-68
2021/10/07 11:23:15;;;;;;;231.63;221.10;;;15.60;99.90;;;;;;4391440;32;20187;-68
2021/10/07 11:25:48;;;;;;;224.40;214.13;;;15.70;99.90;;;;;;4391437;32;20152;-68
2021/10/07 11:28:17;;;;;;;211.10;201.83;;;15.70;99.90;;;;;;4391214;32;20203;-68
2021/10/07 11:30:46;;;;;;;231.73;221.40;;;15.60;99.90;;;;;;4391291;32;20148;-68
2021/10/07 11:33:13;;;;;;;236.70;226.03;;;15.60;99.90;;;;;;4391557;32;20204;-68
2021/10/07 11:35:40;;;;;;;240.30;229.40;;;15.70;99.90;;;;;;4391700;32;20204;-68
2021/10/07 11:38:09;;;;;;;259.77;248.23;;;15.50;99.90;;;;;;4403815;32;20198;-68
2021/10/07 11:40:44;;;;;;;225.20;214.70;;;15.40;99.90;;;;;;4405549;32;20155;-68
2021/10/07 11:43:16;;;;;;;238.17;227.77;;;15.50;99.90;;;;;;4404442;32;20207;-67
2021/10/07 11:45:55;;;;;;;245.77;234.83;;;15.80;99.90;;;;;;4404108;32;20163;-68
2021/10/07 11:48:27;;;;;;;238.63;228.00;;;16.00;99.90;;;;;;4405851;32;20673;-67
2021/10/07 11:51:20;;;;;;;216.23;206.20;;;16.00;99.90;;;;;;4405667;32;20164;-68
2021/10/07 11:53:51;;;;;;;217.43;207.53;;;16.00;99.90;;;;;;4405906;32;20164;-67
2021/10/07 11:56:20;;;;;;;228.27;218.17;;;16.20;99.90;;;;;;4405360;32;20565;-67
2021/10/07 11:58:54;;;;;;;226.27;216.27;;;16.50;99.90;;;;;;4405184;32;20186;-67
2021/10/07 12:01:25;;;;;;;221.40;211.77;;;16.90;99.90;;;;;;4405988;32;20209;-67
2021/10/07 12:04:04;;;;;;;238.90;228.33;;;17.00;99.90;;;;;;4405220;32;20164;-67
2021/10/07 12:06:35;;;;;;;233.63;223.30;;;16.50;99.90;;;;;;4404578;32;20578;-67
2021/10/07 12:09:09;;;;;;;227.07;217.27;;;16.20;99.90;;;;;;4406474;32;20163;-67
2021/10/07 12:11:36;;;;;;;218.33;208.67;;;16.00;99.90;;;;;;4406452;32;20162;-68
2021/10/07 12:14:05;;;;;;;205.23;196.03;;;15.90;99.90;;;;;;4405041;32;20152;-67
2021/10/07 12:16:42;;;;;;;223.17;213.23;;;15.90;99.90;;;;;;4406116;32;20506;-72
2021/10/07 12:19:16;;;;;;;233.60;223.23;;;15.80;99.90;;;;;;4405928;32;20147;-67
2021/10/07 12:21:45;;;;;;;218.20;208.03;;;15.70;99.90;;;;;;4407201;32;20598;-66
2021/10/07 12:24:12;;;;;;;213.50;203.93;;;15.60;99.90;;;;;;4405885;32;20155;-67
2021/10/07 12:26:41;;;;;;;227.07;216.90;;;15.40;99.90;;;;;;4406801;32;20152;-67
2021/10/07 12:29:12;;;;;;;227.07;216.93;;;15.30;99.90;;;;;;4406806;32;20152;-67
2021/10/07 12:31:41;;;;;;;229.47;219.10;;;15.30;99.90;;;;;;4407373;32;20441;-67
2021/10/07 12:34:11;;;;;;;243.43;232.00;;;15.30;99.90;;;;;;4406240;32;20196;-66
2021/10/07 12:36:45;;;;;;;248.07;237.10;;;15.30;99.90;;;;;;4405673;32;20590;-67